Time;durP1;ratioP1;P1;durP2;ratioP2;P2;SDS_P1;SDS_P2;PMS_P1;PMS_P2;Temp;Humidity;BMP_temperature;BMP_pressure;BME280_temperature;BME280_humidity;BME280_pressure;Samples;Min_cycle;Max_cycle;Signal;HPM_P1;HPM_P2
2022/06/13 00:00:47;;;;;;;5.13;2.90;;;;;;;;;;5035854;28;20206;-64
2022/06/13 00:03:13;;;;;;;4.43;3.10;;;;;;;;;;5035771;28;20202;-64
2022/06/13 00:05:39;;;;;;;4.90;2.97;;;;;;;;;;5036104;28;20520;-66
2022/06/13 00:08:05;;;;;;;6.30;3.13;;;;;;;;;;5053881;28;20179;-63
2022/06/13 00:10:31;;;;;;;4.23;3.13;;;;;;;;;;5053659;28;20201;-64
2022/06/13 00:12:57;;;;;;;5.53;3.17;;;;;;;;;;5035793;28;20182;-66
2022/06/13 00:15:23;;;;;;;4.80;3.20;;;;;;;;;;5053582;28;20175;-65
2022/06/13 00:17:49;;;;;;;5.50;2.87;;;;;;;;;;5053791;28;20206;-65
2022/06/13 00:20:15;;;;;;;7.83;2.97;;;;;;;;;;5053390;28;20174;-64
2022/06/13 00:22:41;;;;;;;5.83;2.87;;;;;;;;;;5035688;28;20197;-66
2022/06/13 00:25:08;;;;;;;4.27;2.80;;;;;;;;;;5053470;28;20615;-65
2022/06/13 00:27:34;;;;;;;4.93;2.87;;;;;;;;;;5053659;28;20174;-65
2022/06/13 00:30:00;;;;;;;6.00;3.20;;;;;;;;;;5053354;28;20407;-65
2022/06/13 00:32:26;;;;;;;5.40;3.17;;;;;;;;;;5053678;28;20202;-65
2022/06/13 00:34:52;;;;;;;5.03;3.20;;;;;;;;;;5053523;28;20178;-65
2022/06/13 00:37:18;;;;;;;3.97;2.97;;;;;;;;;;5053847;28;20186;-65
2022/06/13 00:39:44;;;;;;;6.00;3.03;;;;;;;;;;5035485;28;20226;-64
2022/06/13 00:42:12;;;;;;;5.37;3.30;;;;;;;;;;5053589;28;20199;-65
2022/06/13 00:44:39;;;;;;;4.80;3.20;;;;;;;;;;5035539;28;20174;-63
2022/06/13 00:47:05;;;;;;;7.53;3.60;;;;;;;;;;5035619;28;20175;-64
2022/06/13 00:49:42;;;;;;;5.30;3.03;;;;;;;;;;5053637;28;20178;-64
2022/06/13 00:52:15;;;;;;;8.17;3.47;;;;;;;;;;5053447;28;20747;-64
2022/06/13 00:54:42;;;;;;;8.60;3.03;;;;;;;;;;5055579;28;20163;-65
2022/06/13 00:57:13;;;;;;;6.30;2.80;;;;;;;;;;5039779;28;20182;-64
2022/06/13 00:59:40;;;;;;;6.10;3.23;;;;;;;;;;5057960;28;20212;-64
2022/06/13 01:02:07;;;;;;;8.87;3.30;;;;;;;;;;5039641;28;20194;-63
2022/06/13 01:04:33;;;;;;;4.53;3.27;;;;;;;;;;5057458;28;20523;-64
2022/06/13 01:07:01;;;;;;;7.60;3.13;;;;;;;;;;5057326;28;20600;-64
2022/06/13 01:12:13;;;;;;;5.03;3.30;;;;;;;;;;5058048;28;20260;-64
2022/06/13 01:14:45;;;;;;;7.40;3.50;;;;;;;;;;5057392;28;20182;-64
2022/06/13 01:17:20;;;;;;;5.50;3.13;;;;;;;;;;5039254;28;20240;-65
2022/06/13 01:20:08;;;;;;;5.60;3.03;;;;;;;;;;5039289;28;20713;-64
2022/06/13 01:22:37;;;;;;;6.53;3.60;;;;;;;;;;5057419;28;20167;-64
2022/06/13 01:25:22;;;;;;;4.30;3.03;;;;;;;;;;5048832;28;20204;-67
2022/06/13 01:27:51;;;;;;;6.83;3.23;;;;;;;;;;5058528;28;20178;-65
2022/06/13 01:30:26;;;;;;;4.83;3.53;;;;;;;;;;5038931;28;20178;-64
2022/06/13 01:33:01;;;;;;;5.87;3.50;;;;;;;;;;5056866;28;20669;-65
2022/06/13 01:35:43;;;;;;;6.87;3.30;;;;;;;;;;5056847;28;20598;-65
2022/06/13 01:38:27;;;;;;;5.70;3.60;;;;;;;;;;5038853;28;20175;-64
2022/06/13 01:41:29;;;;;;;6.90;3.57;;;;;;;;;;5056720;28;20194;-65
2022/06/13 01:43:54;;;;;;;4.63;2.63;;;;;;;;;;4937127;29;20189;-65
2022/06/13 01:46:32;;;;;;;4.93;3.00;;;;;;;;;;5032696;28;20195;-65
2022/06/13 01:48:58;;;;;;;3.47;2.70;;;;;;;;;;5056705;28;20217;-64
2022/06/13 01:51:27;;;;;;;5.23;2.73;;;;;;;;;;5056474;28;20241;-65
2022/06/13 01:53:59;;;;;;;3.23;2.73;;;;;;;;;;5056523;28;20621;-65
2022/06/13 01:56:27;;;;;;;5.23;3.23;;;;;;;;;;5039066;28;20171;-65
2022/06/13 01:59:10;;;;;;;4.30;3.23;;;;;;;;;;5056740;28;20241;-66
2022/06/13 02:01:44;;;;;;;3.53;2.90;;;;;;;;;;5056396;28;20198;-64
2022/06/13 02:04:18;;;;;;;4.40;2.67;;;;;;;;;;5038375;28;20174;-65
2022/06/13 02:06:47;;;;;;;6.23;3.60;;;;;;;;;;5056254;28;20565;-67
2022/06/13 02:09:28;;;;;;;8.73;3.57;;;;;;;;;;5056580;28;20178;-65
2022/06/13 02:11:54;;;;;;;4.03;2.70;;;;;;;;;;5056043;28;20198;-66
2022/06/13 02:14:33;;;;;;;4.50;3.23;;;;;;;;;;5056246;28;20699;-65
2022/06/13 02:17:03;;;;;;;4.67;2.97;;;;;;;;;;5056118;28;20174;-65
2022/06/13 02:19:34;;;;;;;4.37;3.20;;;;;;;;;;5056028;28;20195;-64
2022/06/13 02:22:05;;;;;;;4.87;3.10;;;;;;;;;;5055887;28;20202;-66
2022/06/13 02:24:34;;;;;;;7.43;4.00;;;;;;;;;;5037890;28;20182;-64
2022/06/13 02:27:02;;;;;;;6.10;3.23;;;;;;;;;;5037695;28;20599;-66
2022/06/13 02:29:30;;;;;;;6.67;3.27;;;;;;;;;;5037887;28;20278;-66
2022/06/13 02:31:59;;;;;;;7.73;3.90;;;;;;;;;;5056112;28;20564;-66
2022/06/13 02:34:27;;;;;;;6.73;3.70;;;;;;;;;;5056268;28;20183;-64
2022/06/13 02:36:59;;;;;;;7.07;3.80;;;;;;;;;;5037621;28;20182;-65
2022/06/13 02:39:28;;;;;;;6.47;3.60;;;;;;;;;;5037501;28;20217;-64
2022/06/13 02:41:57;;;;;;;6.30;4.00;;;;;;;;;;5037436;28;20646;-65
2022/06/13 02:44:27;;;;;;;7.90;4.10;;;;;;;;;;5037553;28;20179;-65
2022/06/13 02:46:57;;;;;;;5.40;3.70;;;;;;;;;;5055275;28;20236;-65
2022/06/13 02:49:35;;;;;;;4.70;3.30;;;;;;;;;;5037363;28;20182;-65
2022/06/13 02:52:19;;;;;;;7.03;3.60;;;;;;;;;;5055156;28;20218;-65
2022/06/13 02:54:53;;;;;;;7.63;3.53;;;;;;;;;;5037864;28;20523;-64
2022/06/13 02:57:25;;;;;;;6.20;3.87;;;;;;;;;;5055344;28;20208;-64
2022/06/13 02:59:57;;;;;;;9.07;3.87;;;;;;;;;;5036982;28;20259;-64
2022/06/13 03:02:42;;;;;;;6.80;3.50;;;;;;;;;;5055708;28;20198;-64
2022/06/13 03:05:11;;;;;;;5.77;3.73;;;;;;;;;;5037252;28;20651;-65
2022/06/13 03:07:43;;;;;;;6.13;3.83;;;;;;;;;;5054971;28;20265;-64
2022/06/13 03:10:09;;;;;;;6.47;4.23;;;;;;;;;;5055314;28;20511;-64
2022/06/13 03:12:39;;;;;;;8.97;4.80;;;;;;;;;;5055353;28;20189;-64
2022/06/13 03:15:14;;;;;;;7.03;4.07;;;;;;;;;;5055193;28;20178;-64
2022/06/13 03:17:44;;;;;;;8.63;3.97;;;;;;;;;;5069609;22;20294;-68
2022/06/13 03:20:14;;;;;;;9.30;4.20;;;;;;;;;;5054206;28;20213;-67
2022/06/13 03:22:49;;;;;;;8.17;4.10;;;;;;;;;;5036474;28;20649;-67
2022/06/13 03:25:24;;;;;;;9.17;4.00;;;;;;;;;;5054677;28;20170;-67
2022/06/13 03:27:53;;;;;;;6.90;3.80;;;;;;;;;;5036235;28;20198;-67
2022/06/13 03:30:20;;;;;;;7.57;4.33;;;;;;;;;;5054290;28;20182;-67
2022/06/13 03:33:39;;;;;;;7.97;4.30;;;;;;;;;;5036454;28;20186;-65
2022/06/13 03:35:36;;;;;;;6.67;4.60;;;;;;;;;;5054055;28;20194;-67
2022/06/13 03:38:04;;;;;;;11.77;4.70;;;;;;;;;;5036066;28;20202;-66
2022/06/13 03:40:31;;;;;;;7.43;4.63;;;;;;;;;;5054218;28;20174;-67
2022/06/13 03:43:23;;;;;;;7.27;4.43;;;;;;;;;;5054534;28;20257;-68
2022/06/13 03:45:52;;;;;;;6.90;4.30;;;;;;;;;;5016481;28;20277;-68
2022/06/13 03:48:23;;;;;;;7.10;4.13;;;;;;;;;;5053864;28;20237;-68
2022/06/13 03:50:55;;;;;;;7.27;4.20;;;;;;;;;;5054253;28;20602;-67
2022/06/13 03:53:27;;;;;;;8.80;4.77;;;;;;;;;;5053877;28;20175;-67
2022/06/13 03:56:00;;;;;;;6.80;3.80;;;;;;;;;;5053775;28;20169;-69
2022/06/13 03:58:31;;;;;;;7.90;4.43;;;;;;;;;;5036024;28;20750;-68
2022/06/13 04:01:09;;;;;;;7.50;5.20;;;;;;;;;;5036019;28;20162;-68
2022/06/13 04:03:36;;;;;;;8.97;4.80;;;;;;;;;;5035948;28;20182;-66
2022/06/13 04:06:04;;;;;;;8.40;5.00;;;;;;;;;;5035883;28;20182;-66
2022/06/13 04:08:33;;;;;;;7.23;4.53;;;;;;;;;;5053767;28;20555;-67
2022/06/13 04:11:02;;;;;;;8.20;4.97;;;;;;;;;;5053955;28;20186;-66
2022/06/13 04:13:42;;;;;;;10.07;4.87;;;;;;;;;;5053689;28;20174;-66
2022/06/13 04:16:11;;;;;;;8.53;4.43;;;;;;;;;;5035774;28;20525;-66
2022/06/13 04:18:43;;;;;;;7.83;5.17;;;;;;;;;;5035606;28;20229;-66
2022/06/13 04:21:28;;;;;;;8.87;5.30;;;;;;;;;;5053672;28;20166;-67
2022/06/13 04:24:03;;;;;;;9.27;5.07;;;;;;;;;;5035603;28;20273;-66
2022/06/13 04:26:38;;;;;;;7.27;4.90;;;;;;;;;;5053522;28;20166;-68
2022/06/13 04:29:07;;;;;;;10.93;5.60;;;;;;;;;;5052370;28;20221;-66
2022/06/13 04:31:34;;;;;;;10.83;6.23;;;;;;;;;;5053220;28;20190;-66
2022/06/13 04:34:05;;;;;;;10.63;5.47;;;;;;;;;;5035362;28;20189;-67
2022/06/13 04:36:32;;;;;;;14.23;6.07;;;;;;;;;;5053668;28;20179;-66
2022/06/13 04:38:59;;;;;;;11.30;5.30;;;;;;;;;;5053074;28;20206;-66
2022/06/13 04:41:27;;;;;;;9.47;5.60;;;;;;;;;;5053333;28;20174;-66
2022/06/13 04:43:56;;;;;;;11.10;5.97;;;;;;;;;;5053299;28;20308;-66
2022/06/13 04:46:23;;;;;;;11.33;6.03;;;;;;;;;;5053302;28;20184;-66
2022/06/13 04:48:50;;;;;;;10.50;6.17;;;;;;;;;;5053102;28;20205;-66
2022/06/13 04:51:17;;;;;;;11.93;5.80;;;;;;;;;;5053428;28;20182;-66
2022/06/13 04:53:59;;;;;;;9.70;5.90;;;;;;;;;;5034872;28;20224;-66
2022/06/13 04:56:26;;;;;;;8.20;5.37;;;;;;;;;;5053196;28;20178;-67
2022/06/13 04:58:53;;;;;;;10.33;6.13;;;;;;;;;;5035064;28;20281;-66
2022/06/13 05:01:27;;;;;;;12.83;6.77;;;;;;;;;;5053290;28;20190;-67
2022/06/13 05:03:54;;;;;;;10.80;6.03;;;;;;;;;;5053004;28;20232;-67
2022/06/13 05:06:40;;;;;;;9.43;5.87;;;;;;;;;;5053147;28;20262;-66
2022/06/13 05:09:06;;;;;;;8.07;4.87;;;;;;;;;;5052257;28;20260;-66
2022/06/13 05:11:38;;;;;;;12.20;5.47;;;;;;;;;;5053089;28;20639;-66
2022/06/13 05:14:19;;;;;;;7.47;4.77;;;;;;;;;;5053077;28;20182;-66
2022/06/13 05:16:53;;;;;;;11.60;5.17;;;;;;;;;;5034803;28;20193;-66
2022/06/13 05:19:20;;;;;;;7.10;5.40;;;;;;;;;;5052564;28;20292;-67
2022/06/13 05:21:48;;;;;;;7.33;4.70;;;;;;;;;;5052833;28;20221;-66
2022/06/13 05:24:14;;;;;;;9.27;5.17;;;;;;;;;;5034872;28;20214;-67
2022/06/13 05:26:40;;;;;;;7.77;4.63;;;;;;;;;;5034805;28;20209;-66
2022/06/13 05:29:09;;;;;;;9.63;5.07;;;;;;;;;;5052506;28;20694;-67
2022/06/13 05:31:35;;;;;;;7.17;4.60;;;;;;;;;;5034721;28;20655;-66
2022/06/13 05:34:02;;;;;;;8.53;4.37;;;;;;;;;;5053105;28;20257;-67
2022/06/13 05:36:28;;;;;;;8.43;5.03;;;;;;;;;;5034655;28;20190;-67
2022/06/13 05:38:59;;;;;;;9.77;4.33;;;;;;;;;;5052518;28;20213;-67
2022/06/13 05:41:26;;;;;;;5.73;4.47;;;;;;;;;;5055136;28;20174;-67
2022/06/13 05:43:52;;;;;;;11.57;4.50;;;;;;;;;;5056339;28;20175;-66
2022/06/13 05:46:26;;;;;;;6.93;4.90;;;;;;;;;;5038189;28;20181;-67
2022/06/13 05:48:52;;;;;;;10.23;4.40;;;;;;;;;;5056108;28;20281;-66
2022/06/13 05:51:18;;;;;;;11.23;4.97;;;;;;;;;;5038214;28;20236;-67
2022/06/13 05:53:44;;;;;;;8.93;5.03;;;;;;;;;;5038123;28;20190;-66
2022/06/13 05:56:11;;;;;;;9.90;4.53;;;;;;;;;;5037897;28;20182;-66
2022/06/13 05:58:37;;;;;;;7.10;5.23;;;;;;;;;;5037714;28;20214;-66
2022/06/13 06:01:04;;;;;;;6.87;5.40;;;;;;;;;;5055853;28;20185;-66
2022/06/13 06:03:30;;;;;;;12.23;5.50;;;;;;;;;;5056079;28;20218;-66
2022/06/13 06:05:56;;;;;;;11.63;5.50;;;;;;;;;;5037979;28;20265;-68
2022/06/13 06:08:23;;;;;;;10.13;5.47;;;;;;;;;;5055800;28;20226;-66
2022/06/13 06:10:50;;;;;;;7.97;6.27;;;;;;;;;;5055644;28;20182;-66
2022/06/13 06:13:16;;;;;;;11.07;5.80;;;;;;;;;;5037895;28;20183;-66
2022/06/13 06:15:43;;;;;;;7.53;5.50;;;;;;;;;;5055664;28;20550;-66
2022/06/13 06:18:09;;;;;;;12.63;6.80;;;;;;;;;;5055281;28;20225;-68
2022/06/13 06:20:39;;;;;;;7.53;6.13;;;;;;;;;;5055949;28;20170;-66
2022/06/13 06:23:05;;;;;;;10.37;6.37;;;;;;;;;;5055654;28;20256;-67
2022/06/13 06:25:31;;;;;;;11.27;7.23;;;;;;;;;;5037496;28;20221;-66
2022/06/13 06:27:57;;;;;;;12.57;6.80;;;;;;;;;;5037374;28;20554;-66
2022/06/13 06:30:23;;;;;;;11.77;6.80;;;;;;;;;;5055543;28;20588;-66
2022/06/13 06:32:49;;;;;;;11.77;6.87;;;;;;;;;;5037420;28;20183;-66
2022/06/13 06:35:15;;;;;;;9.77;6.70;;;;;;;;;;5055528;28;20220;-66
2022/06/13 06:37:46;;;;;;;10.43;7.33;;;;;;;;;;5055186;28;20696;-66
2022/06/13 06:40:13;;;;;;;11.83;7.87;;;;;;;;;;5037319;28;20194;-67
2022/06/13 06:42:39;;;;;;;13.03;7.20;;;;;;;;;;5055136;28;20228;-67
2022/06/13 06:45:05;;;;;;;16.27;7.73;;;;;;;;;;5055074;28;20183;-66
2022/06/13 06:47:31;;;;;;;10.87;6.93;;;;;;;;;;5055436;28;20281;-66
2022/06/13 06:49:57;;;;;;;16.03;7.53;;;;;;;;;;5055196;28;20179;-66
2022/06/13 06:52:23;;;;;;;12.13;7.13;;;;;;;;;;5053944;28;20189;-66
2022/06/13 07:00:19;;;;;;;14.03;8.67;;;;;;;;;;5054714;28;20590;-66
2022/06/13 07:02:45;;;;;;;12.57;8.83;;;;;;;;;;5054971;28;20167;-66
2022/06/13 07:05:12;;;;;;;15.50;8.23;;;;;;;;;;5055070;28;20171;-66
2022/06/13 07:07:38;;;;;;;13.07;8.10;;;;;;;;;;5054580;28;20197;-66
2022/06/13 07:10:05;;;;;;;11.10;7.30;;;;;;;;;;5036793;28;20178;-66
2022/06/13 07:12:31;;;;;;;16.53;8.67;;;;;;;;;;5036678;28;20233;-66
2022/06/13 07:14:57;;;;;;;12.70;7.90;;;;;;;;;;5054627;28;20669;-66
2022/06/13 07:17:23;;;;;;;18.23;9.10;;;;;;;;;;5054661;28;20304;-67
2022/06/13 07:19:49;;;;;;;16.77;9.30;;;;;;;;;;5036660;28;20767;-66
2022/06/13 07:22:17;;;;;;;13.17;8.80;;;;;;;;;;5036573;28;20171;-67
2022/06/13 07:24:43;;;;;;;18.77;9.13;;;;;;;;;;5054531;28;20171;-67
2022/06/13 07:27:09;;;;;;;14.30;8.27;;;;;;;;;;5054387;28;20202;-67
2022/06/13 07:29:35;;;;;;;13.37;8.30;;;;;;;;;;5054652;28;20174;-66
2022/06/13 07:32:06;;;;;;;16.10;7.93;;;;;;;;;;5054848;28;20186;-66
2022/06/13 07:34:34;;;;;;;12.83;8.03;;;;;;;;;;5054297;28;20650;-66
2022/06/13 07:37:01;;;;;;;11.47;7.93;;;;;;;;;;5054628;28;20190;-66
2022/06/13 07:39:27;;;;;;;11.20;7.37;;;;;;;;;;5054724;28;20663;-66
2022/06/13 07:41:53;;;;;;;15.13;7.33;;;;;;;;;;5036421;28;20197;-67
2022/06/13 07:44:21;;;;;;;14.27;7.93;;;;;;;;;;5054156;28;20182;-66
2022/06/13 07:46:48;;;;;;;12.93;7.60;;;;;;;;;;5036281;28;20185;-66
2022/06/13 07:49:14;;;;;;;13.20;7.73;;;;;;;;;;5036210;28;20233;-66
2022/06/13 07:51:40;;;;;;;12.93;6.73;;;;;;;;;;5036043;28;20218;-66
2022/06/13 07:54:06;;;;;;;12.43;6.53;;;;;;;;;;5035972;28;20178;-66
2022/06/13 07:56:32;;;;;;;8.33;5.97;;;;;;;;;;5054351;28;20271;-66
2022/06/13 07:58:59;;;;;;;11.87;5.90;;;;;;;;;;5035815;28;20232;-66
2022/06/13 08:01:25;;;;;;;15.60;6.27;;;;;;;;;;5035951;28;20175;-67
2022/06/13 08:03:52;;;;;;;10.43;6.60;;;;;;;;;;5053714;28;20171;-66
2022/06/13 08:06:18;;;;;;;12.73;6.10;;;;;;;;;;5053991;28;20225;-66
2022/06/13 08:08:45;;;;;;;8.17;5.63;;;;;;;;;;5053432;28;20297;-66
2022/06/13 08:11:12;;;;;;;11.53;6.10;;;;;;;;;;5053832;28;20206;-67
2022/06/13 08:13:39;;;;;;;15.30;5.90;;;;;;;;;;5035445;28;20221;-66
2022/06/13 08:16:06;;;;;;;12.40;6.43;;;;;;;;;;5053384;28;20183;-67
2022/06/13 08:18:31;;;;;;;9.70;5.40;;;;;;;;;;5053180;28;20218;-66
2022/06/13 08:20:57;;;;;;;8.53;5.90;;;;;;;;;;5053879;28;20178;-66
2022/06/13 08:23:24;;;;;;;10.17;6.00;;;;;;;;;;5053483;28;20185;-66
2022/06/13 08:25:50;;;;;;;10.40;5.23;;;;;;;;;;5053153;28;20768;-66
2022/06/13 08:28:16;;;;;;;11.80;5.87;;;;;;;;;;5053287;28;20198;-66
2022/06/13 08:30:46;;;;;;;7.07;4.97;;;;;;;;;;5053508;28;20232;-66
2022/06/13 08:33:12;;;;;;;11.17;5.80;;;;;;;;;;5035498;28;20270;-66
2022/06/13 08:35:38;;;;;;;7.53;4.90;;;;;;;;;;5053305;28;20185;-67
2022/06/13 08:38:04;;;;;;;10.13;5.03;;;;;;;;;;5053056;28;20609;-66
2022/06/13 08:40:49;;;;;;;9.00;4.80;;;;;;;;;;5035242;28;20253;-66
2022/06/13 08:43:21;;;;;;;9.53;5.40;;;;;;;;;;5036020;28;20641;-67
2022/06/13 08:45:50;;;;;;;9.67;5.13;;;;;;;;;;5053077;28;20222;-67
2022/06/13 08:48:35;;;;;;;10.13;5.70;;;;;;;;;;5053098;28;20201;-67
2022/06/13 08:51:08;;;;;;;9.53;3.63;;;;;;;;;;5053087;28;20163;-66
2022/06/13 08:53:44;;;;;;;7.97;4.77;;;;;;;;;;5053375;28;20250;-66
2022/06/13 08:56:11;;;;;;;7.27;4.20;;;;;;;;;;5053337;28;20251;-67
2022/06/13 08:58:40;;;;;;;8.80;4.77;;;;;;;;;;5052850;28;20206;-66
2022/06/13 09:01:18;;;;;;;8.40;4.57;;;;;;;;;;5052883;28;20181;-66
2022/06/13 09:04:02;;;;;;;8.23;3.93;;;;;;;;;;5052915;28;20178;-67
2022/06/13 09:06:44;;;;;;;10.30;3.87;;;;;;;;;;5053315;28;20232;-67
2022/06/13 09:09:12;;;;;;;7.50;3.37;;;;;;;;;;5034914;28;20206;-67
2022/06/13 09:11:46;;;;;;;8.90;3.27;;;;;;;;;;5035058;28;20186;-67
2022/06/13 09:14:16;;;;;;;7.40;3.50;;;;;;;;;;5053099;28;20169;-67
2022/06/13 09:16:43;;;;;;;9.10;3.00;;;;;;;;;;5056263;28;20186;-67
2022/06/13 09:19:14;;;;;;;7.63;3.70;;;;;;;;;;5056368;28;20233;-67
2022/06/13 09:21:43;;;;;;;5.43;3.60;;;;;;;;;;5056974;28;20166;-66
2022/06/13 09:24:23;;;;;;;6.83;3.37;;;;;;;;;;5056710;28;20600;-67
2022/06/13 09:27:09;;;;;;;6.87;3.10;;;;;;;;;;5056948;28;20158;-66
2022/06/13 09:29:44;;;;;;;7.47;3.70;;;;;;;;;;5056336;28;20195;-67
2022/06/13 09:32:12;;;;;;;9.73;3.60;;;;;;;;;;5056751;28;20169;-64
2022/06/13 09:34:45;;;;;;;8.13;3.80;;;;;;;;;;5056752;28;20183;-66
2022/06/13 09:37:13;;;;;;;6.20;3.73;;;;;;;;;;5056615;28;20198;-67
2022/06/13 09:39:40;;;;;;;5.57;2.90;;;;;;;;;;5038390;28;20210;-66
2022/06/13 09:42:11;;;;;;;6.50;3.40;;;;;;;;;;5056241;28;20189;-66
2022/06/13 09:44:37;;;;;;;7.20;3.60;;;;;;;;;;5038316;28;20201;-67
2022/06/13 09:47:24;;;;;;;5.60;2.90;;;;;;;;;;5049529;23;20267;-68
2022/06/13 09:49:50;;;;;;;7.43;3.23;;;;;;;;;;5015892;28;20614;-68
2022/06/13 09:52:19;;;;;;;6.73;3.23;;;;;;;;;;5017468;28;20259;-67
2022/06/13 09:54:45;;;;;;;9.20;3.53;;;;;;;;;;5017247;28;20183;-68
2022/06/13 09:57:25;;;;;;;8.07;3.30;;;;;;;;;;5016860;28;20254;-67
2022/06/13 10:00:03;;;;;;;5.70;3.17;;;;;;;;;;5017269;28;20226;-66
2022/06/13 10:02:48;;;;;;;5.23;2.70;;;;;;;;;;5017262;28;20184;-67
2022/06/13 10:05:15;;;;;;;5.93;2.80;;;;;;;;;;5015864;28;20222;-67
2022/06/13 10:07:48;;;;;;;6.40;2.60;;;;;;;;;;5015615;28;20262;-67
2022/06/13 10:10:21;;;;;;;4.17;2.50;;;;;;;;;;5016303;28;20628;-67
2022/06/13 10:12:51;;;;;;;5.43;2.43;;;;;;;;;;5016861;28;20199;-67
2022/06/13 10:15:23;;;;;;;6.60;3.13;;;;;;;;;;5016642;28;20176;-67
2022/06/13 10:18:18;;;;;;;5.93;2.50;;;;;;;;;;5016378;28;20664;-68
2022/06/13 10:20:43;;;;;;;3.97;2.20;;;;;;;;;;5016502;28;20168;-68
2022/06/13 10:23:23;;;;;;;4.30;2.17;;;;;;;;;;5014924;28;20238;-69
2022/06/13 10:25:55;;;;;;;4.90;2.40;;;;;;;;;;5016248;28;20223;-67
2022/06/13 10:28:40;;;;;;;4.00;2.13;;;;;;;;;;5014791;28;20168;-68
2022/06/13 10:31:24;;;;;;;4.87;1.60;;;;;;;;;;5015044;28;20620;-68
2022/06/13 10:34:07;;;;;;;2.43;1.50;;;;;;;;;;5016123;28;20183;-68
2022/06/13 10:36:33;;;;;;;2.90;2.10;;;;;;;;;;5014539;28;20725;-69
2022/06/13 10:39:07;;;;;;;3.77;2.03;;;;;;;;;;5015847;28;20207;-68
2022/06/13 10:41:36;;;;;;;3.80;2.20;;;;;;;;;;5014684;28;20211;-68
2022/06/13 10:44:03;;;;;;;5.00;1.83;;;;;;;;;;5016127;28;20172;-68
2022/06/13 10:46:29;;;;;;;2.13;1.70;;;;;;;;;;5021071;28;20270;-67
2022/06/13 10:48:58;;;;;;;3.73;1.90;;;;;;;;;;5017705;28;20183;-68
2022/06/13 10:51:24;;;;;;;3.50;2.00;;;;;;;;;;5017707;28;20563;-67
2022/06/13 10:54:08;;;;;;;3.87;2.07;;;;;;;;;;5017951;28;20601;-68
2022/06/13 10:56:37;;;;;;;2.63;1.80;;;;;;;;;;5035499;28;20218;-68
2022/06/13 10:59:02;;;;;;;3.33;1.70;;;;;;;;;;5035912;28;20199;-67
2022/06/13 11:01:30;;;;;;;4.40;1.50;;;;;;;;;;5035465;28;20175;-68
2022/06/13 11:04:25;;;;;;;4.83;2.00;;;;;;;;;;5017437;28;20190;-68
2022/06/13 11:06:53;;;;;;;3.80;2.00;;;;;;;;;;5026452;28;20214;-68
2022/06/13 11:09:39;;;;;;;1.70;1.60;;;;;;;;;;5035885;28;20174;-68
2022/06/13 11:12:15;;;;;;;2.73;1.70;;;;;;;;;;5034963;28;20191;-67
2022/06/13 11:23:02;;;;;;;3.20;1.40;;;;;;;;;;5036495;28;20221;-68
2022/06/13 11:25:33;;;;;;;2.53;1.33;;;;;;;;;;5035193;28;20171;-68
2022/06/13 11:28:04;;;;;;;2.27;1.37;;;;;;;;;;5035140;28;20191;-67
2022/06/13 11:30:34;;;;;;;3.43;1.40;;;;;;;;;;5034822;28;20189;-68
2022/06/13 11:33:05;;;;;;;2.60;1.30;;;;;;;;;;5017303;28;20552;-68
2022/06/13 11:35:39;;;;;;;3.63;1.50;;;;;;;;;;5034677;28;20709;-68
2022/06/13 11:38:14;;;;;;;1.63;1.20;;;;;;;;;;5033875;28;20199;-67
2022/06/13 11:40:40;;;;;;;4.73;1.13;;;;;;;;;;5034796;28;20194;-68
2022/06/13 11:43:17;;;;;;;1.40;1.30;;;;;;;;;;5034836;28;20183;-67
2022/06/13 11:45:43;;;;;;;1.97;1.20;;;;;;;;;;5016881;28;20191;-67
2022/06/13 11:48:13;;;;;;;3.43;1.17;;;;;;;;;;5016885;28;20215;-67
2022/06/13 11:50:39;;;;;;;1.23;1.03;;;;;;;;;;5034544;28;20261;-67
2022/06/13 11:55:52;;;;;;;1.00;1.00;;;;;;;;;;5034283;28;20213;-66
2022/06/13 11:58:23;;;;;;;1.70;1.27;;;;;;;;;;5016392;28;20217;-67
2022/06/13 12:00:52;;;;;;;2.50;1.60;;;;;;;;;;5017123;28;20546;-66
2022/06/13 12:03:23;;;;;;;4.20;1.27;;;;;;;;;;5016341;28;20183;-67
2022/06/13 12:05:51;;;;;;;1.77;1.27;;;;;;;;;;5016446;28;20705;-66
2022/06/13 12:08:17;;;;;;;2.07;1.30;;;;;;;;;;5033962;28;20183;-67
2022/06/13 12:11:03;;;;;;;1.20;1.10;;;;;;;;;;5034162;28;20185;-67
2022/06/13 12:13:31;;;;;;;3.93;1.40;;;;;;;;;;5034512;28;20502;-67
2022/06/13 12:16:00;;;;;;;2.30;1.20;;;;;;;;;;5016244;28;20175;-66
2022/06/13 12:18:51;;;;;;;3.07;1.23;;;;;;;;;;5016160;28;20175;-67
2022/06/13 12:21:20;;;;;;;1.67;1.40;;;;;;;;;;5016056;28;20167;-67
2022/06/13 12:23:53;;;;;;;1.37;1.27;;;;;;;;;;5033905;28;20179;-67
2022/06/13 12:26:23;;;;;;;2.03;1.30;;;;;;;;;;5016115;28;20711;-67
2022/06/13 12:28:53;;;;;;;1.83;1.63;;;;;;;;;;5033824;28;20175;-67
2022/06/13 12:31:39;;;;;;;1.13;1.00;;;;;;;;;;5034297;28;20262;-68
2022/06/13 12:34:24;;;;;;;1.57;1.00;;;;;;;;;;5015816;28;20226;-67
2022/06/13 12:36:57;;;;;;;1.70;1.30;;;;;;;;;;5033665;28;20195;-67
2022/06/13 12:39:41;;;;;;;2.57;1.20;;;;;;;;;;5015868;28;20199;-67
2022/06/13 12:42:10;;;;;;;1.70;1.30;;;;;;;;;;5033866;28;20261;-68
2022/06/13 12:44:55;;;;;;;1.40;1.30;;;;;;;;;;5015919;28;20662;-66
2022/06/13 12:47:35;;;;;;;1.83;1.17;;;;;;;;;;5033685;28;20278;-67
2022/06/13 12:50:07;;;;;;;3.73;1.47;;;;;;;;;;5016327;28;20171;-66
2022/06/13 12:52:57;;;;;;;1.30;1.20;;;;;;;;;;5037774;28;20250;-66
2022/06/13 12:55:35;;;;;;;1.77;1.10;;;;;;;;;;5020120;28;20175;-66
2022/06/13 12:58:20;;;;;;;1.30;1.20;;;;;;;;;;5037640;28;20202;-67
2022/06/13 13:00:50;;;;;;;2.83;1.40;;;;;;;;;;5037552;28;20187;-66
2022/06/13 13:03:17;;;;;;;2.97;1.33;;;;;;;;;;5019705;28;20189;-67
2022/06/13 13:06:02;;;;;;;1.33;1.13;;;;;;;;;;5019623;28;20269;-66
2022/06/13 13:08:34;;;;;;;2.60;1.50;;;;;;;;;;5037436;28;20262;-66
2022/06/13 13:11:09;;;;;;;1.53;1.13;;;;;;;;;;5019606;28;20241;-66
2022/06/13 13:13:44;;;;;;;2.53;1.10;;;;;;;;;;5037814;28;20178;-66
2022/06/13 13:16:15;;;;;;;1.37;1.10;;;;;;;;;;5037061;28;20643;-65
2022/06/13 13:19:00;;;;;;;1.70;1.20;;;;;;;;;;5037270;28;20245;-66
2022/06/13 13:21:46;;;;;;;1.70;1.23;;;;;;;;;;5037227;28;20279;-67
2022/06/13 13:24:21;;;;;;;3.33;1.60;;;;;;;;;;5037004;28;20250;-66
2022/06/13 13:26:53;;;;;;;4.73;1.40;;;;;;;;;;5018999;28;20234;-66
2022/06/13 13:29:33;;;;;;;3.07;1.20;;;;;;;;;;5036954;28;20262;-66
2022/06/13 13:31:59;;;;;;;2.77;1.53;;;;;;;;;;5037177;28;20194;-66
2022/06/13 13:34:31;;;;;;;1.30;1.20;;;;;;;;;;5036490;28;20643;-67
2022/06/13 13:37:23;;;;;;;1.87;1.47;;;;;;;;;;5018786;28;20207;-66
2022/06/13 13:40:04;;;;;;;2.70;1.40;;;;;;;;;;5034627;28;20589;-66
2022/06/13 13:42:37;;;;;;;1.37;1.27;;;;;;;;;;5036896;28;20661;-67
2022/06/13 13:45:15;;;;;;;3.00;1.30;;;;;;;;;;5036652;28;20181;-67
2022/06/13 13:47:41;;;;;;;2.33;1.13;;;;;;;;;;5036281;28;20206;-67
2022/06/13 13:50:19;;;;;;;3.90;1.40;;;;;;;;;;5036465;28;20190;-68
2022/06/13 13:52:50;;;;;;;2.33;1.60;;;;;;;;;;5018724;28;20182;-67
2022/06/13 13:55:20;;;;;;;2.50;1.70;;;;;;;;;;5036732;28;20171;-67
2022/06/13 13:57:49;;;;;;;2.27;1.37;;;;;;;;;;5036298;28;20206;-67
2022/06/13 14:00:20;;;;;;;5.27;1.43;;;;;;;;;;5036410;28;20204;-68
2022/06/13 14:02:52;;;;;;;3.07;1.30;;;;;;;;;;5035653;28;20662;-67
2022/06/13 14:05:27;;;;;;;4.87;1.40;;;;;;;;;;5036677;28;20163;-69
2022/06/13 14:07:57;;;;;;;2.63;1.40;;;;;;;;;;5036264;28;20194;-67
2022/06/13 14:10:24;;;;;;;3.20;1.60;;;;;;;;;;5036110;28;20183;-68
2022/06/13 14:13:07;;;;;;;2.10;1.40;;;;;;;;;;5036351;28;20219;-67
2022/06/13 14:15:39;;;;;;;3.37;1.87;;;;;;;;;;5036034;28;20182;-67
2022/06/13 14:18:06;;;;;;;2.83;1.40;;;;;;;;;;5036210;28;20277;-67
2022/06/13 14:20:32;;;;;;;2.40;1.50;;;;;;;;;;5018259;28;20226;-67
2022/06/13 14:23:00;;;;;;;2.33;1.43;;;;;;;;;;5036326;28;20248;-67
2022/06/13 14:25:35;;;;;;;5.10;1.60;;;;;;;;;;5035918;28;20182;-67
2022/06/13 14:28:06;;;;;;;2.30;1.43;;;;;;;;;;5018175;28;20262;-67
2022/06/13 14:36:08;;;;;;;1.53;1.20;;;;;;;;;;5036244;28;20229;-67
2022/06/13 14:38:40;;;;;;;2.43;1.37;;;;;;;;;;5035952;28;20190;-67
2022/06/13 14:41:18;;;;;;;3.37;1.57;;;;;;;;;;5018267;28;20181;-67
2022/06/13 14:43:43;;;;;;;3.93;1.57;;;;;;;;;;5035949;28;20175;-68
2022/06/13 14:46:28;;;;;;;4.90;1.43;;;;;;;;;;5035768;28;20210;-67
2022/06/13 14:48:58;;;;;;;2.40;1.30;;;;;;;;;;5035786;28;20168;-67
2022/06/13 14:51:26;;;;;;;3.70;1.40;;;;;;;;;;5017609;28;20183;-68
2022/06/13 14:53:54;;;;;;;2.73;1.23;;;;;;;;;;5035433;28;20183;-67
2022/06/13 14:56:26;;;;;;;1.80;1.47;;;;;;;;;;5035455;28;20204;-67
2022/06/13 14:58:52;;;;;;;2.20;1.40;;;;;;;;;;5035228;28;20199;-66
2022/06/13 15:01:20;;;;;;;2.30;1.50;;;;;;;;;;5035273;28;20262;-67
2022/06/13 15:03:59;;;;;;;2.67;1.27;;;;;;;;;;5035310;28;20258;-67
2022/06/13 15:06:25;;;;;;;3.60;1.40;;;;;;;;;;5035280;28;20195;-67
2022/06/13 15:09:01;;;;;;;1.23;1.13;;;;;;;;;;5035485;28;20202;-66
2022/06/13 15:11:27;;;;;;;2.63;1.53;;;;;;;;;;5017566;28;20237;-66
2022/06/13 15:13:54;;;;;;;1.63;1.43;;;;;;;;;;5034985;28;20183;-67
2022/06/13 15:16:21;;;;;;;2.67;1.30;;;;;;;;;;5017426;28;20329;-67
2022/06/13 15:18:54;;;;;;;1.93;1.17;;;;;;;;;;5035426;28;20616;-66
2022/06/13 15:21:21;;;;;;;2.20;1.60;;;;;;;;;;5035323;28;20627;-67
2022/06/13 15:23:50;;;;;;;3.20;1.27;;;;;;;;;;5035087;28;20171;-66
2022/06/13 15:26:23;;;;;;;2.83;1.27;;;;;;;;;;5035588;28;20296;-66
2022/06/13 15:29:07;;;;;;;1.77;1.10;;;;;;;;;;5017583;28;20594;-67